sensor_id;sensor_type;location;lat;lon;timestamp;noise_LAeq;noise_LA_min;noise_LA_max;noise_LA01;noise_LA95
69608;Laerm;57251;52.248;4.812;2022-12-07T00:00:04;34.65;33.08;42.42;;
69608;Laerm;57251;52.248;4.812;2022-12-07T00:00:14;34.46;32.69;37.67;;
69608;Laerm;57251;52.248;4.812;2022-12-07T00:00:25;35.36;33.20;38.50;;
69608;Laerm;57251;52.248;4.812;2022-12-07T00:00:35;35.85;34.14;37.74;;
69608;Laerm;57251;52.248;4.812;2022-12-07T00:00:45;36.05;34.08;38.49;;
69608;Laerm;57251;52.248;4.812;2022-12-07T00:01:03;36.65;34.35;40.97;;
69608;Laerm;57251;52.248;4.812;2022-12-07T00:01:15;36.52;34.18;40.95;;
69608;Laerm;57251;52.248;4.812;2022-12-07T00:01:27;39.60;36.49;43.81;;
69608;Laerm;57251;52.248;4.812;2022-12-07T00:01:38;38.21;35.33;42.04;;
69608;Laerm;57251;52.248;4.812;2022-12-07T00:01:49;40.73;38.15;43.30;;
69608;Laerm;57251;52.248;4.812;2022-12-07T00:01:59;38.39;34.71;44.93;;
69608;Laerm;57251;52.248;4.812;2022-12-07T00:02:09;41.38;38.32;44.95;;
69608;Laerm;57251;52.248;4.812;2022-12-07T00:02:20;41.15;37.39;45.73;;
69608;Laerm;57251;52.248;4.812;2022-12-07T00:02:30;37.32;34.39;41.41;;
69608;Laerm;57251;52.248;4.812;2022-12-07T00:02:40;36.44;34.39;39.25;;
69608;Laerm;57251;52.248;4.812;2022-12-07T00:02:51;36.29;34.21;39.02;;
69608;Laerm;57251;52.248;4.812;2022-12-07T00:03:01;35.80;34.05;38.02;;
69608;Laerm;57251;52.248;4.812;2022-12-07T00:03:11;36.03;33.95;38.45;;
69608;Laerm;57251;52.248;4.812;2022-12-07T00:03:21;35.32;33.39;37.56;;
69608;Laerm;57251;52.248;4.812;2022-12-07T00:03:32;35.73;33.85;39.05;;
69608;Laerm;57251;52.248;4.812;2022-12-07T00:03:43;38.90;33.53;44.40;;
69608;Laerm;57251;52.248;4.812;2022-12-07T00:03:54;40.76;36.96;44.15;;
69608;Laerm;57251;52.248;4.812;2022-12-07T00:04:07;37.23;34.52;46.75;;
69608;Laerm;57251;52.248;4.812;2022-12-07T00:04:18;36.28;34.00;40.42;;
69608;Laerm;57251;52.248;4.812;2022-12-07T00:04:28;35.39;32.58;39.14;;
69608;Laerm;57251;52.248;4.812;2022-12-07T00:04:38;36.14;33.09;38.47;;
69608;Laerm;57251;52.248;4.812;2022-12-07T00:04:49;34.37;32.63;36.94;;
69608;Laerm;57251;52.248;4.812;2022-12-07T00:04:59;35.89;33.73;40.65;;
69608;Laerm;57251;52.248;4.812;2022-12-07T00:05:09;36.51;34.55;39.53;;
69608;Laerm;57251;52.248;4.812;2022-12-07T00:05:20;38.46;35.72;40.64;;
69608;Laerm;57251;52.248;4.812;2022-12-07T00:05:30;39.86;36.69;43.63;;
69608;Laerm;57251;52.248;4.812;2022-12-07T00:05:40;38.87;35.19;42.81;;
69608;Laerm;57251;52.248;4.812;2022-12-07T00:05:50;38.48;34.87;43.67;;
69608;Laerm;57251;52.248;4.812;2022-12-07T00:06:01;40.70;37.33;45.25;;
69608;Laerm;57251;52.248;4.812;2022-12-07T00:06:12;39.58;35.00;42.71;;
69608;Laerm;57251;52.248;4.812;2022-12-07T00:06:24;36.51;34.27;47.61;;
69608;Laerm;57251;52.248;4.812;2022-12-07T00:06:35;34.84;33.26;37.37;;
69608;Laerm;57251;52.248;4.812;2022-12-07T00:06:46;35.25;33.63;37.21;;
69608;Laerm;57251;52.248;4.812;2022-12-07T00:07:00;35.95;33.51;39.13;;
69608;Laerm;57251;52.248;4.812;2022-12-07T00:07:10;35.96;34.40;38.29;;
69608;Laerm;57251;52.248;4.812;2022-12-07T00:07:20;34.87;33.05;36.78;;
69608;Laerm;57251;52.248;4.812;2022-12-07T00:07:30;35.65;33.67;38.10;;
69608;Laerm;57251;52.248;4.812;2022-12-07T00:07:41;37.83;34.40;40.33;;
69608;Laerm;57251;52.248;4.812;2022-12-07T00:07:51;36.75;33.40;40.23;;
69608;Laerm;57251;52.248;4.812;2022-12-07T00:08:01;35.83;33.65;39.01;;
69608;Laerm;57251;52.248;4.812;2022-12-07T00:08:11;35.36;33.52;37.49;;
69608;Laerm;57251;52.248;4.812;2022-12-07T00:08:21;38.36;34.77;45.54;;
69608;Laerm;57251;52.248;4.812;2022-12-07T00:08:32;41.25;37.34;45.21;;
69608;Laerm;57251;52.248;4.812;2022-12-07T00:08:43;39.21;34.65;43.74;;
69608;Laerm;57251;52.248;4.812;2022-12-07T00:08:53;38.32;35.48;40.55;;
69608;Laerm;57251;52.248;4.812;2022-12-07T00:09:04;37.35;34.66;40.73;;
69608;Laerm;57251;52.248;4.812;2022-12-07T00:09:15;38.25;34.32;42.29;;
69608;Laerm;57251;52.248;4.812;2022-12-07T00:09:27;38.51;36.42;42.81;;
69608;Laerm;57251;52.248;4.812;2022-12-07T00:09:37;37.40;34.65;42.00;;
69608;Laerm;57251;52.248;4.812;2022-12-07T00:09:48;36.58;34.14;40.57;;
69608;Laerm;57251;52.248;4.812;2022-12-07T00:09:59;37.18;34.14;46.54;;
69608;Laerm;57251;52.248;4.812;2022-12-07T00:10:09;35.47;33.13;37.95;;
69608;Laerm;57251;52.248;4.812;2022-12-07T00:10:19;36.17;34.24;38.62;;
69608;Laerm;57251;52.248;4.812;2022-12-07T00:10:29;36.05;33.79;40.81;;
69608;Laerm;57251;52.248;4.812;2022-12-07T00:10:40;35.55;33.89;37.85;;
69608;Laerm;57251;52.248;4.812;2022-12-07T00:10:50;35.36;33.57;37.31;;
69608;Laerm;57251;52.248;4.812;2022-12-07T00:11:01;37.84;34.19;42.23;;
69608;Laerm;57251;52.248;4.812;2022-12-07T00:11:21;36.58;33.71;41.70;;
69608;Laerm;57251;52.248;4.812;2022-12-07T00:11:31;36.23;33.73;41.62;;
69608;Laerm;57251;52.248;4.812;2022-12-07T00:11:42;35.81;34.06;38.87;;
69608;Laerm;57251;52.248;4.812;2022-12-07T00:11:52;36.30;33.60;39.81;;
69608;Laerm;57251;52.248;4.812;2022-12-07T00:12:03;37.40;34.40;41.70;;
69608;Laerm;57251;52.248;4.812;2022-12-07T00:12:13;36.10;34.16;38.55;;
69608;Laerm;57251;52.248;4.812;2022-12-07T00:12:23;37.21;34.31;40.27;;
69608;Laerm;57251;52.248;4.812;2022-12-07T00:12:33;35.90;33.00;39.60;;
69608;Laerm;57251;52.248;4.812;2022-12-07T00:12:44;36.05;33.40;40.31;;
69608;Laerm;57251;52.248;4.812;2022-12-07T00:12:54;35.04;33.12;38.05;;
69608;Laerm;57251;52.248;4.812;2022-12-07T00:13:04;34.70;33.08;36.76;;
69608;Laerm;57251;52.248;4.812;2022-12-07T00:13:14;34.84;33.29;37.48;;
69608;Laerm;57251;52.248;4.812;2022-12-07T00:13:24;34.98;33.11;37.89;;
69608;Laerm;57251;52.248;4.812;2022-12-07T00:13:35;35.56;33.44;37.63;;
69608;Laerm;57251;52.248;4.812;2022-12-07T00:13:46;36.77;33.46;39.90;;
69608;Laerm;57251;52.248;4.812;2022-12-07T00:13:57;34.68;32.85;39.75;;
69608;Laerm;57251;52.248;4.812;2022-12-07T00:14:11;35.62;33.08;38.33;;
69608;Laerm;57251;52.248;4.812;2022-12-07T00:14:22;35.31;33.50;38.49;;
69608;Laerm;57251;52.248;4.812;2022-12-07T00:14:32;37.46;35.19;41.27;;
69608;Laerm;57251;52.248;4.812;2022-12-07T00:14:42;37.53;35.14;39.44;;
69608;Laerm;57251;52.248;4.812;2022-12-07T00:14:53;39.19;35.48;44.68;;
69608;Laerm;57251;52.248;4.812;2022-12-07T00:15:03;40.81;37.69;43.65;;
69608;Laerm;57251;52.248;4.812;2022-12-07T00:15:13;40.16;36.92;44.24;;
69608;Laerm;57251;52.248;4.812;2022-12-07T00:15:24;40.21;36.93;44.24;;
69608;Laerm;57251;52.248;4.812;2022-12-07T00:15:34;38.61;35.94;41.00;;
69608;Laerm;57251;52.248;4.812;2022-12-07T00:15:45;37.02;34.64;40.10;;
69608;Laerm;57251;52.248;4.812;2022-12-07T00:15:55;36.42;34.53;39.01;;
69608;Laerm;57251;52.248;4.812;2022-12-07T00:16:07;37.62;33.84;43.76;;
69608;Laerm;57251;52.248;4.812;2022-12-07T00:16:18;39.06;35.44;45.25;;
69608;Laerm;57251;52.248;4.812;2022-12-07T00:16:32;37.90;33.39;44.15;;
69608;Laerm;57251;52.248;4.812;2022-12-07T00:16:43;37.75;34.15;42.13;;
69608;Laerm;57251;52.248;4.812;2022-12-07T00:16:53;36.92;33.54;42.45;;
69608;Laerm;57251;52.248;4.812;2022-12-07T00:17:03;36.05;33.89;38.83;;
69608;Laerm;57251;52.248;4.812;2022-12-07T00:17:14;36.95;34.63;39.44;;
69608;Laerm;57251;52.248;4.812;2022-12-07T00:17:24;36.78;34.39;39.03;;
69608;Laerm;57251;52.248;4.812;2022-12-07T00:17:34;36.95;34.48;39.07;;
69608;Laerm;57251;52.248;4.812;2022-12-07T00:17:44;37.52;35.14;42.00;;
69608;Laerm;57251;52.248;4.812;2022-12-07T00:17:54;38.37;34.63;41.90;;
69608;Laerm;57251;52.248;4.812;2022-12-07T00:18:05;39.76;35.50;44.42;;
69608;Laerm;57251;52.248;4.812;2022-12-07T00:18:15;40.02;36.93;44.84;;
69608;Laerm;57251;52.248;4.812;2022-12-07T00:18:25;38.44;35.00;43.16;;
69608;Laerm;57251;52.248;4.812;2022-12-07T00:18:38;39.14;34.27;42.79;;
69608;Laerm;57251;52.248;4.812;2022-12-07T00:18:48;38.66;35.61;42.72;;
69608;Laerm;57251;52.248;4.812;2022-12-07T00:18:59;36.64;35.00;39.02;;
69608;Laerm;57251;52.248;4.812;2022-12-07T00:19:10;36.63;34.48;38.55;;
69608;Laerm;57251;52.248;4.812;2022-12-07T00:19:23;37.28;33.72;40.45;;
69608;Laerm;57251;52.248;4.812;2022-12-07T00:19:33;36.29;34.21;39.29;;
69608;Laerm;57251;52.248;4.812;2022-12-07T00:19:43;36.09;33.79;39.70;;
69608;Laerm;57251;52.248;4.812;2022-12-07T00:19:54;35.32;33.25;37.27;;
69608;Laerm;57251;52.248;4.812;2022-12-07T00:20:04;35.25;33.46;38.12;;
69608;Laerm;57251;52.248;4.812;2022-12-07T00:20:14;34.81;33.19;36.62;;
69608;Laerm;57251;52.248;4.812;2022-12-07T00:20:25;35.70;33.37;39.79;;
69608;Laerm;57251;52.248;4.812;2022-12-07T00:20:35;34.84;33.31;37.62;;
69608;Laerm;57251;52.248;4.812;2022-12-07T00:20:45;34.96;33.07;39.93;;
69608;Laerm;57251;52.248;4.812;2022-12-07T00:21:25;39.62;34.09;48.82;;
69608;Laerm;57251;52.248;4.812;2022-12-07T00:21:36;41.34;34.84;49.43;;
69608;Laerm;57251;52.248;4.812;2022-12-07T00:21:46;38.93;35.47;45.87;;
69608;Laerm;57251;52.248;4.812;2022-12-07T00:21:56;37.36;33.97;43.43;;
69608;Laerm;57251;52.248;4.812;2022-12-07T00:22:06;36.82;34.42;43.08;;
69608;Laerm;57251;52.248;4.812;2022-12-07T00:22:17;38.53;34.05;43.08;;
69608;Laerm;57251;52.248;4.812;2022-12-07T00:22:27;40.32;37.65;44.49;;
69608;Laerm;57251;52.248;4.812;2022-12-07T00:22:37;40.44;36.14;51.53;;
69608;Laerm;57251;52.248;4.812;2022-12-07T00:22:47;38.74;34.73;48.67;;
69608;Laerm;57251;52.248;4.812;2022-12-07T00:22:58;35.74;33.28;39.99;;
69608;Laerm;57251;52.248;4.812;2022-12-07T00:23:08;42.56;34.98;53.01;;
69608;Laerm;57251;52.248;4.812;2022-12-07T00:23:18;41.77;35.36;49.43;;
69608;Laerm;57251;52.248;4.812;2022-12-07T00:23:29;44.68;37.49;66.85;;
69608;Laerm;57251;52.248;4.812;2022-12-07T00:23:43;44.29;37.55;66.56;;
69608;Laerm;57251;52.248;4.812;2022-12-07T00:24:11;39.25;35.79;50.07;;
69608;Laerm;57251;52.248;4.812;2022-12-07T00:24:24;39.08;36.25;49.21;;
69608;Laerm;57251;52.248;4.812;2022-12-07T00:24:38;38.66;34.78;51.04;;
69608;Laerm;57251;52.248;4.812;2022-12-07T00:24:48;37.11;34.52;43.64;;
69608;Laerm;57251;52.248;4.812;2022-12-07T00:24:59;37.04;34.84;39.31;;
69608;Laerm;57251;52.248;4.812;2022-12-07T00:25:09;37.42;34.43;42.46;;
69608;Laerm;57251;52.248;4.812;2022-12-07T00:25:19;37.08;34.30;42.49;;
69608;Laerm;57251;52.248;4.812;2022-12-07T00:25:30;36.88;34.42;40.23;;
69608;Laerm;57251;52.248;4.812;2022-12-07T00:25:40;36.18;34.26;40.91;;
69608;Laerm;57251;52.248;4.812;2022-12-07T00:25:50;37.19;33.94;52.88;;
69608;Laerm;57251;52.248;4.812;2022-12-07T00:26:04;36.01;33.55;41.06;;
69608;Laerm;57251;52.248;4.812;2022-12-07T00:26:16;35.47;33.38;38.04;;
69608;Laerm;57251;52.248;4.812;2022-12-07T00:26:30;35.47;33.12;38.08;;
69608;Laerm;57251;52.248;4.812;2022-12-07T00:26:41;35.68;33.08;40.87;;
69608;Laerm;57251;52.248;4.812;2022-12-07T00:26:52;35.36;33.39;37.96;;
69608;Laerm;57251;52.248;4.812;2022-12-07T00:27:02;34.88;32.73;38.24;;
69608;Laerm;57251;52.248;4.812;2022-12-07T00:27:12;36.79;32.98;40.67;;
69608;Laerm;57251;52.248;4.812;2022-12-07T00:27:22;35.62;33.63;38.04;;
69608;Laerm;57251;52.248;4.812;2022-12-07T00:27:33;35.18;33.08;37.49;;
69608;Laerm;57251;52.248;4.812;2022-12-07T00:27:43;35.23;33.33;39.00;;
69608;Laerm;57251;52.248;4.812;2022-12-07T00:27:56;34.90;33.30;38.20;;
69608;Laerm;57251;52.248;4.812;2022-12-07T00:28:07;35.26;33.28;37.16;;
69608;Laerm;57251;52.248;4.812;2022-12-07T00:28:20;35.81;33.82;40.30;;
69608;Laerm;57251;52.248;4.812;2022-12-07T00:28:31;35.43;33.71;39.27;;
69608;Laerm;57251;52.248;4.812;2022-12-07T00:28:44;34.70;32.81;44.53;;
69608;Laerm;57251;52.248;4.812;2022-12-07T00:28:56;34.07;32.39;39.11;;
69608;Laerm;57251;52.248;4.812;2022-12-07T00:29:07;35.31;33.39;37.42;;
69608;Laerm;57251;52.248;4.812;2022-12-07T00:29:20;34.35;32.40;37.26;;
69608;Laerm;57251;52.248;4.812;2022-12-07T00:29:31;34.54;32.87;39.71;;
69608;Laerm;57251;52.248;4.812;2022-12-07T00:29:42;33.74;31.68;36.15;;
69608;Laerm;57251;52.248;4.812;2022-12-07T00:29:52;33.61;32.10;38.23;;
69608;Laerm;57251;52.248;4.812;2022-12-07T00:30:02;33.63;31.97;36.52;;
69608;Laerm;57251;52.248;4.812;2022-12-07T00:30:12;34.17;32.45;36.65;;
69608;Laerm;57251;52.248;4.812;2022-12-07T00:30:23;33.73;32.22;35.91;;
69608;Laerm;57251;52.248;4.812;2022-12-07T00:30:33;33.92;32.32;36.14;;
69608;Laerm;57251;52.248;4.812;2022-12-07T00:30:43;34.79;32.79;42.19;;
69608;Laerm;57251;52.248;4.812;2022-12-07T00:30:59;34.50;32.57;37.81;;
69608;Laerm;57251;52.248;4.812;2022-12-07T00:31:10;34.44;33.01;36.88;;
69608;Laerm;57251;52.248;4.812;2022-12-07T00:31:22;34.87;32.93;39.01;;
69608;Laerm;57251;52.248;4.812;2022-12-07T00:31:34;35.59;33.07;42.88;;
69608;Laerm;57251;52.248;4.812;2022-12-07T00:31:48;38.04;33.00;44.42;;
69608;Laerm;57251;52.248;4.812;2022-12-07T00:31:58;37.31;34.23;42.37;;
69608;Laerm;57251;52.248;4.812;2022-12-07T00:32:08;34.57;32.51;36.94;;
69608;Laerm;57251;52.248;4.812;2022-12-07T00:32:19;35.56;33.06;38.82;;
69608;Laerm;57251;52.248;4.812;2022-12-07T00:32:29;34.40;32.30;37.61;;
69608;Laerm;57251;52.248;4.812;2022-12-07T00:32:39;35.72;33.28;40.41;;
69608;Laerm;57251;52.248;4.812;2022-12-07T00:32:49;35.94;33.36;39.50;;
69608;Laerm;57251;52.248;4.812;2022-12-07T00:33:00;34.36;32.69;36.61;;
69608;Laerm;57251;52.248;4.812;2022-12-07T00:33:10;33.86;31.98;36.16;;
69608;Laerm;57251;52.248;4.812;2022-12-07T00:33:20;33.65;32.02;35.47;;
69608;Laerm;57251;52.248;4.812;2022-12-07T00:33:31;33.84;32.16;35.71;;
69608;Laerm;57251;52.248;4.812;2022-12-07T00:33:41;33.90;32.18;36.96;;
69608;Laerm;57251;52.248;4.812;2022-12-07T00:33:52;33.82;31.91;36.10;;
69608;Laerm;57251;52.248;4.812;2022-12-07T00:34:02;33.41;31.86;35.57;;
69608;Laerm;57251;52.248;4.812;2022-12-07T00:34:17;33.93;32.43;38.51;;
69608;Laerm;57251;52.248;4.812;2022-12-07T00:34:27;34.58;32.37;38.33;;
69608;Laerm;57251;52.248;4.812;2022-12-07T00:34:37;33.75;32.29;35.47;;
69608;Laerm;57251;52.248;4.812;2022-12-07T00:34:47;34.08;32.46;36.40;;
69608;Laerm;57251;52.248;4.812;2022-12-07T00:34:58;33.98;32.21;38.18;;
69608;Laerm;57251;52.248;4.812;2022-12-07T00:35:08;33.78;32.06;39.09;;
69608;Laerm;57251;52.248;4.812;2022-12-07T00:35:18;33.53;32.11;41.38;;
69608;Laerm;57251;52.248;4.812;2022-12-07T00:35:28;33.87;31.78;37.89;;
69608;Laerm;57251;52.248;4.812;2022-12-07T00:35:39;34.38;32.56;37.73;;
69608;Laerm;57251;52.248;4.812;2022-12-07T00:35:54;34.16;32.61;37.70;;
69608;Laerm;57251;52.248;4.812;2022-12-07T00:36:09;34.69;32.74;37.17;;
69608;Laerm;57251;52.248;4.812;2022-12-07T00:36:21;34.30;32.31;37.60;;
69608;Laerm;57251;52.248;4.812;2022-12-07T00:36:31;34.24;32.56;36.66;;
69608;Laerm;57251;52.248;4.812;2022-12-07T00:36:41;34.26;32.33;35.87;;
69608;Laerm;57251;52.248;4.812;2022-12-07T00:36:52;35.86;32.71;39.09;;
69608;Laerm;57251;52.248;4.812;2022-12-07T00:37:02;36.21;33.33;46.45;;
69608;Laerm;57251;52.248;4.812;2022-12-07T00:37:12;34.12;31.87;40.05;;
69608;Laerm;57251;52.248;4.812;2022-12-07T00:37:23;34.80;32.47;44.18;;
69608;Laerm;57251;52.248;4.812;2022-12-07T00:37:33;34.50;32.51;38.06;;
69608;Laerm;57251;52.248;4.812;2022-12-07T00:37:43;33.91;32.27;36.42;;
69608;Laerm;57251;52.248;4.812;2022-12-07T00:37:53;34.07;31.82;38.20;;
69608;Laerm;57251;52.248;4.812;2022-12-07T00:38:04;34.01;32.62;36.84;;
69608;Laerm;57251;52.248;4.812;2022-12-07T00:38:14;33.78;31.69;36.83;;
69608;Laerm;57251;52.248;4.812;2022-12-07T00:38:24;34.43;32.52;36.92;;
69608;Laerm;57251;52.248;4.812;2022-12-07T00:38:35;33.92;32.05;37.06;;
69608;Laerm;57251;52.248;4.812;2022-12-07T00:38:45;34.49;32.30;37.85;;
69608;Laerm;57251;52.248;4.812;2022-12-07T00:38:57;34.19;32.18;40.11;;
69608;Laerm;57251;52.248;4.812;2022-12-07T00:39:07;33.25;31.77;36.00;;
69608;Laerm;57251;52.248;4.812;2022-12-07T00:39:18;33.62;32.19;35.18;;
69608;Laerm;57251;52.248;4.812;2022-12-07T00:39:28;34.01;32.65;36.77;;
69608;Laerm;57251;52.248;4.812;2022-12-07T00:39:39;34.10;32.12;37.39;;
69608;Laerm;57251;52.248;4.812;2022-12-07T00:39:49;35.21;33.04;39.67;;
69608;Laerm;57251;52.248;4.812;2022-12-07T00:39:59;34.56;32.62;37.91;;
69608;Laerm;57251;52.248;4.812;2022-12-07T00:40:09;34.90;31.58;42.92;;
69608;Laerm;57251;52.248;4.812;2022-12-07T00:40:20;36.08;33.40;40.61;;
69608;Laerm;57251;52.248;4.812;2022-12-07T00:40:30;35.77;32.46;45.65;;
69608;Laerm;57251;52.248;4.812;2022-12-07T00:40:40;46.63;32.73;61.41;;
69608;Laerm;57251;52.248;4.812;2022-12-07T00:40:57;34.24;32.56;37.63;;
69608;Laerm;57251;52.248;4.812;2022-12-07T00:41:12;35.85;32.08;46.44;;
69608;Laerm;57251;52.248;4.812;2022-12-07T00:41:24;33.70;31.97;37.86;;
69608;Laerm;57251;52.248;4.812;2022-12-07T00:41:34;33.66;31.72;37.28;;
69608;Laerm;57251;52.248;4.812;2022-12-07T00:41:44;33.73;32.02;37.91;;
69608;Laerm;57251;52.248;4.812;2022-12-07T00:41:55;33.99;32.41;36.56;;
69608;Laerm;57251;52.248;4.812;2022-12-07T00:42:05;34.62;32.81;37.07;;
69608;Laerm;57251;52.248;4.812;2022-12-07T00:42:16;35.63;33.53;37.86;;
69608;Laerm;57251;52.248;4.812;2022-12-07T00:42:26;36.32;33.80;41.19;;
69608;Laerm;57251;52.248;4.812;2022-12-07T00:42:36;39.09;35.68;43.23;;
69608;Laerm;57251;52.248;4.812;2022-12-07T00:42:46;38.83;34.96;42.17;;
69608;Laerm;57251;52.248;4.812;2022-12-07T00:42:57;38.47;35.08;47.00;;
69608;Laerm;57251;52.248;4.812;2022-12-07T00:43:07;37.74;35.21;41.32;;
69608;Laerm;57251;52.248;4.812;2022-12-07T00:43:17;35.30;33.15;37.82;;
69608;Laerm;57251;52.248;4.812;2022-12-07T00:43:27;35.25;33.17;42.93;;
69608;Laerm;57251;52.248;4.812;2022-12-07T00:43:38;35.42;33.38;37.76;;
69608;Laerm;57251;52.248;4.812;2022-12-07T00:43:49;34.18;32.63;38.22;;
69608;Laerm;57251;52.248;4.812;2022-12-07T00:43:59;34.06;32.55;36.20;;
69608;Laerm;57251;52.248;4.812;2022-12-07T00:44:10;35.08;32.36;43.39;;
69608;Laerm;57251;52.248;4.812;2022-12-07T00:44:20;35.09;32.75;38.38;;
69608;Laerm;57251;52.248;4.812;2022-12-07T00:44:30;34.63;32.80;38.55;;
69608;Laerm;57251;52.248;4.812;2022-12-07T00:44:41;35.69;33.75;42.22;;
69608;Laerm;57251;52.248;4.812;2022-12-07T00:44:51;36.05;33.88;39.03;;
69608;Laerm;57251;52.248;4.812;2022-12-07T00:45:01;35.21;32.92;39.09;;
69608;Laerm;57251;52.248;4.812;2022-12-07T00:45:11;35.92;33.58;40.08;;
69608;Laerm;57251;52.248;4.812;2022-12-07T00:45:21;35.79;33.69;39.24;;
69608;Laerm;57251;52.248;4.812;2022-12-07T00:45:32;35.60;33.41;45.34;;
69608;Laerm;57251;52.248;4.812;2022-12-07T00:45:42;34.31;32.89;37.13;;
69608;Laerm;57251;52.248;4.812;2022-12-07T00:45:52;34.03;32.19;35.67;;
69608;Laerm;57251;52.248;4.812;2022-12-07T00:46:03;35.30;33.24;39.84;;
69608;Laerm;57251;52.248;4.812;2022-12-07T00:46:13;35.21;33.27;37.57;;
69608;Laerm;57251;52.248;4.812;2022-12-07T00:46:24;34.66;32.79;37.91;;
69608;Laerm;57251;52.248;4.812;2022-12-07T00:46:34;35.15;33.17;37.78;;
69608;Laerm;57251;52.248;4.812;2022-12-07T00:46:45;36.93;34.45;40.44;;
69608;Laerm;57251;52.248;4.812;2022-12-07T00:46:55;35.61;33.99;37.85;;
69608;Laerm;57251;52.248;4.812;2022-12-07T00:47:06;35.41;33.45;38.30;;
69608;Laerm;57251;52.248;4.812;2022-12-07T00:47:16;35.49;33.65;37.88;;
69608;Laerm;57251;52.248;4.812;2022-12-07T00:47:27;36.05;33.18;38.62;;
69608;Laerm;57251;52.248;4.812;2022-12-07T00:47:37;35.76;33.52;38.24;;
69608;Laerm;57251;52.248;4.812;2022-12-07T00:47:47;36.79;34.00;40.04;;
69608;Laerm;57251;52.248;4.812;2022-12-07T00:47:57;36.27;33.86;39.95;;
69608;Laerm;57251;52.248;4.812;2022-12-07T00:48:07;34.85;33.02;37.83;;
69608;Laerm;57251;52.248;4.812;2022-12-07T00:48:18;35.53;33.43;39.37;;
69608;Laerm;57251;52.248;4.812;2022-12-07T00:48:28;35.12;33.23;37.78;;
69608;Laerm;57251;52.248;4.812;2022-12-07T00:48:39;37.04;34.11;40.80;;
69608;Laerm;57251;52.248;4.812;2022-12-07T00:49:10;35.97;33.06;42.40;;
69608;Laerm;57251;52.248;4.812;2022-12-07T00:49:20;36.85;34.47;40.73;;
69608;Laerm;57251;52.248;4.812;2022-12-07T00:49:31;35.77;33.51;40.71;;
69608;Laerm;57251;52.248;4.812;2022-12-07T00:49:42;35.54;33.64;38.51;;
69608;Laerm;57251;52.248;4.812;2022-12-07T00:49:55;35.37;32.69;38.47;;
69608;Laerm;57251;52.248;4.812;2022-12-07T00:50:06;35.22;33.29;36.96;;
69608;Laerm;57251;52.248;4.812;2022-12-07T00:50:17;34.95;32.89;41.77;;
69608;Laerm;57251;52.248;4.812;2022-12-07T00:50:28;34.71;33.20;36.56;;
69608;Laerm;57251;52.248;4.812;2022-12-07T00:50:39;36.18;33.85;38.56;;
69608;Laerm;57251;52.248;4.812;2022-12-07T00:50:50;35.37;33.30;38.48;;
69608;Laerm;57251;52.248;4.812;2022-12-07T00:51:06;34.81;32.82;36.84;;
69608;Laerm;57251;52.248;4.812;2022-12-07T00:51:18;34.78;33.05;36.52;;
69608;Laerm;57251;52.248;4.812;2022-12-07T00:51:29;35.37;33.41;37.44;;
69608;Laerm;57251;52.248;4.812;2022-12-07T00:51:39;34.97;33.14;38.47;;
69608;Laerm;57251;52.248;4.812;2022-12-07T00:51:52;34.56;33.07;36.66;;
69608;Laerm;57251;52.248;4.812;2022-12-07T00:52:02;36.17;33.44;40.61;;
69608;Laerm;57251;52.248;4.812;2022-12-07T00:52:12;35.83;33.28;38.80;;
69608;Laerm;57251;52.248;4.812;2022-12-07T00:52:23;35.03;33.36;38.15;;
69608;Laerm;57251;52.248;4.812;2022-12-07T00:52:33;35.09;33.19;37.41;;
69608;Laerm;57251;52.248;4.812;2022-12-07T00:52:43;34.83;33.04;37.07;;
69608;Laerm;57251;52.248;4.812;2022-12-07T00:52:53;34.41;32.57;37.15;;
69608;Laerm;57251;52.248;4.812;2022-12-07T00:53:04;34.15;32.71;36.70;;
69608;Laerm;57251;52.248;4.812;2022-12-07T00:53:14;34.65;32.74;37.03;;
69608;Laerm;57251;52.248;4.812;2022-12-07T00:53:24;33.88;32.13;36.00;;
69608;Laerm;57251;52.248;4.812;2022-12-07T00:53:35;33.74;32.27;35.37;;
69608;Laerm;57251;52.248;4.812;2022-12-07T00:53:45;33.95;32.28;36.01;;
69608;Laerm;57251;52.248;4.812;2022-12-07T00:53:56;33.73;32.46;35.23;;
69608;Laerm;57251;52.248;4.812;2022-12-07T00:54:06;33.58;32.31;35.91;;
69608;Laerm;57251;52.248;4.812;2022-12-07T00:54:16;33.66;32.12;35.46;;
69608;Laerm;57251;52.248;4.812;2022-12-07T00:54:27;34.36;32.51;36.98;;
69608;Laerm;57251;52.248;4.812;2022-12-07T00:54:37;34.48;32.75;37.80;;
69608;Laerm;57251;52.248;4.812;2022-12-07T00:54:47;35.59;32.38;46.82;;
69608;Laerm;57251;52.248;4.812;2022-12-07T00:54:57;34.84;32.16;38.32;;
69608;Laerm;57251;52.248;4.812;2022-12-07T00:55:08;34.28;32.88;36.87;;
69608;Laerm;57251;52.248;4.812;2022-12-07T00:55:18;34.59;33.10;41.13;;
69608;Laerm;57251;52.248;4.812;2022-12-07T00:55:32;34.35;32.98;35.91;;
69608;Laerm;57251;52.248;4.812;2022-12-07T00:55:43;35.20;32.64;42.14;;
69608;Laerm;57251;52.248;4.812;2022-12-07T00:55:54;34.61;32.56;39.57;;
69608;Laerm;57251;52.248;4.812;2022-12-07T00:56:06;35.04;32.87;42.42;;
69608;Laerm;57251;52.248;4.812;2022-12-07T00:56:18;34.59;32.40;38.68;;
69608;Laerm;57251;52.248;4.812;2022-12-07T00:56:28;34.99;33.10;38.87;;
69608;Laerm;57251;52.248;4.812;2022-12-07T00:56:39;34.13;32.47;37.77;;
69608;Laerm;57251;52.248;4.812;2022-12-07T00:56:52;34.21;32.70;38.44;;
69608;Laerm;57251;52.248;4.812;2022-12-07T00:57:04;34.48;32.79;36.76;;
69608;Laerm;57251;52.248;4.812;2022-12-07T00:57:14;33.69;32.19;37.23;;
69608;Laerm;57251;52.248;4.812;2022-12-07T00:57:25;33.92;32.51;35.89;;
69608;Laerm;57251;52.248;4.812;2022-12-07T00:57:37;33.99;32.51;36.86;;
69608;Laerm;57251;52.248;4.812;2022-12-07T00:57:48;33.80;32.41;36.16;;
69608;Laerm;57251;52.248;4.812;2022-12-07T00:57:58;33.90;32.34;42.61;;
69608;Laerm;57251;52.248;4.812;2022-12-07T00:58:08;33.45;31.93;35.78;;
69608;Laerm;57251;52.248;4.812;2022-12-07T00:58:19;33.71;32.29;37.74;;
69608;Laerm;57251;52.248;4.812;2022-12-07T00:58:30;33.84;32.22;38.63;;
69608;Laerm;57251;52.248;4.812;2022-12-07T00:59:05;34.24;32.24;37.39;;
69608;Laerm;57251;52.248;4.812;2022-12-07T00:59:15;36.27;33.41;41.04;;
69608;Laerm;57251;52.248;4.812;2022-12-07T00:59:32;37.73;34.34;41.94;;
69608;Laerm;57251;52.248;4.812;2022-12-07T00:59:46;40.28;34.89;44.09;;
69608;Laerm;57251;52.248;4.812;2022-12-07T00:59:56;38.20;34.98;41.06;;
69608;Laerm;57251;52.248;4.812;2022-12-07T01:00:13;39.52;34.40;45.34;;
69608;Laerm;57251;52.248;4.812;2022-12-07T01:00:24;38.73;34.92;41.82;;
69608;Laerm;57251;52.248;4.812;2022-12-07T01:00:35;37.25;34.79;40.68;;
69608;Laerm;57251;52.248;4.812;2022-12-07T01:00:46;37.48;34.48;40.26;;
69608;Laerm;57251;52.248;4.812;2022-12-07T01:00:59;36.32;34.22;43.61;;
69608;Laerm;57251;52.248;4.812;2022-12-07T01:01:10;36.69;34.16;40.74;;
69608;Laerm;57251;52.248;4.812;2022-12-07T01:01:21;36.71;34.94;39.79;;
69608;Laerm;57251;52.248;4.812;2022-12-07T01:01:33;36.46;34.57;38.66;;
69608;Laerm;57251;52.248;4.812;2022-12-07T01:01:47;35.18;33.06;37.53;;
69608;Laerm;57251;52.248;4.812;2022-12-07T01:02:14;35.43;32.42;41.50;;
69608;Laerm;57251;52.248;4.812;2022-12-07T01:02:25;34.63;32.97;36.83;;
69608;Laerm;57251;52.248;4.812;2022-12-07T01:02:38;34.40;33.01;36.20;;
69608;Laerm;57251;52.248;4.812;2022-12-07T01:02:49;34.16;32.59;36.00;;